Time;durP1;ratioP1;P1;durP2;ratioP2;P2;SDS_P1;SDS_P2;PMS_P1;PMS_P2;Temp;Humidity;BMP_temperature;BMP_pressure;BME280_temperature;BME280_humidity;BME280_pressure;Samples;Min_cycle;Max_cycle;Signal;HPM_P1;HPM_P2
2021/08/08 00:00:07;;;;;;;5.27;4.77;;;17.80;99.90;;;;;;5037409;28;20450;-84
2021/08/08 00:02:37;;;;;;;5.77;4.00;;;17.80;99.90;;;;;;5037248;28;20939;-84
2021/08/08 00:05:04;;;;;;;13.20;5.10;;;17.80;99.90;;;;;;5036534;28;21006;-83
2021/08/08 00:07:30;;;;;;;4.47;4.17;;;17.90;99.90;;;;;;5037097;28;20512;-84
2021/08/08 00:09:58;;;;;;;4.73;4.20;;;17.90;99.90;;;;;;5036696;28;20456;-84
2021/08/08 00:12:25;;;;;;;4.07;3.70;;;17.90;99.90;;;;;;5036230;28;21045;-83
2021/08/08 00:14:52;;;;;;;4.07;3.47;;;17.80;99.90;;;;;;5036396;28;20528;-83
2021/08/08 00:17:18;;;;;;;5.70;3.20;;;17.80;99.90;;;;;;5038124;28;20447;-83
2021/08/08 00:19:45;;;;;;;4.27;3.50;;;17.80;99.90;;;;;;5035960;28;20443;-83
2021/08/08 00:22:11;;;;;;;3.97;3.67;;;17.70;99.90;;;;;;5036700;28;20470;-83
2021/08/08 00:24:38;;;;;;;4.40;3.10;;;17.70;99.90;;;;;;5035658;28;20483;-83
2021/08/08 00:27:06;;;;;;;5.67;4.27;;;17.70;99.90;;;;;;5036549;28;20467;-83
2021/08/08 00:29:33;;;;;;;6.10;3.80;;;17.70;99.90;;;;;;5035383;28;20463;-83
2021/08/08 00:32:00;;;;;;;4.30;3.93;;;17.80;99.90;;;;;;5036742;28;20475;-84
2021/08/08 00:34:26;;;;;;;4.70;3.50;;;17.70;99.90;;;;;;5035852;28;20487;-84
2021/08/08 00:36:54;;;;;;;3.97;3.67;;;17.80;99.90;;;;;;5036428;28;20486;-84
2021/08/08 00:39:22;;;;;;;4.07;3.00;;;17.90;99.90;;;;;;5036084;28;20462;-83
2021/08/08 00:41:49;;;;;;;4.57;3.80;;;17.90;99.90;;;;;;5036612;28;20459;-83
2021/08/08 00:44:21;;;;;;;4.00;3.70;;;17.90;99.90;;;;;;5037637;28;20477;-83
2021/08/08 00:46:48;;;;;;;4.67;2.77;;;17.80;99.90;;;;;;5036533;28;20459;-84
2021/08/08 00:49:16;;;;;;;4.20;3.90;;;17.80;99.90;;;;;;5035589;28;20466;-83
2021/08/08 00:51:46;;;;;;;3.87;3.63;;;17.60;99.90;;;;;;5035995;28;20451;-83
2021/08/08 00:54:13;;;;;;;4.20;2.77;;;17.30;99.90;;;;;;5035970;28;20483;-83
2021/08/08 00:56:42;;;;;;;3.50;3.20;;;17.50;99.90;;;;;;5035672;28;20457;-83
2021/08/08 00:59:10;;;;;;;6.90;3.20;;;17.70;99.90;;;;;;5035771;28;20459;-83
2021/08/08 01:01:42;;;;;;;3.40;3.20;;;17.80;99.90;;;;;;5037558;28;20546;-83
2021/08/08 01:04:13;;;;;;;3.83;3.30;;;17.40;99.90;;;;;;5036759;28;20475;-83
2021/08/08 01:06:43;;;;;;;4.40;3.87;;;17.60;99.90;;;;;;5037193;28;20451;-83
2021/08/08 01:09:12;;;;;;;4.17;3.27;;;17.60;99.90;;;;;;5039043;28;20473;-84
2021/08/08 01:11:40;;;;;;;4.10;3.80;;;17.90;99.90;;;;;;5040898;28;20466;-84
2021/08/08 01:14:08;;;;;;;3.47;3.17;;;17.50;99.90;;;;;;5039729;28;20489;-84
2021/08/08 01:16:37;;;;;;;3.43;2.97;;;17.50;99.90;;;;;;5049942;28;20443;-84
2021/08/08 01:19:10;;;;;;;3.23;3.03;;;17.40;99.90;;;;;;5053351;28;20458;-83
2021/08/08 01:21:39;;;;;;;3.33;3.03;;;17.50;99.90;;;;;;5046866;28;20879;-85
2021/08/08 01:24:15;;;;;;;3.60;3.30;;;17.40;99.90;;;;;;5037388;28;20487;-84
2021/08/08 01:26:44;;;;;;;5.07;4.57;;;17.40;99.90;;;;;;5036386;28;20549;-84
2021/08/08 01:29:11;;;;;;;3.20;2.90;;;17.50;99.90;;;;;;5036394;28;20459;-85
2021/08/08 01:31:38;;;;;;;3.10;2.87;;;17.50;99.90;;;;;;5037531;28;20465;-84
2021/08/08 01:34:05;;;;;;;3.93;3.20;;;17.50;99.90;;;;;;5039257;28;20487;-85
2021/08/08 01:36:33;;;;;;;6.90;3.40;;;17.50;99.90;;;;;;5040645;28;20463;-84
2021/08/08 01:39:03;;;;;;;5.20;3.60;;;17.50;99.90;;;;;;5039973;28;20447;-84
2021/08/08 01:41:36;;;;;;;3.83;3.53;;;17.50;99.90;;;;;;5039952;28;20439;-84
2021/08/08 01:44:06;;;;;;;3.30;3.10;;;17.50;99.90;;;;;;5039226;28;20467;-85
2021/08/08 01:46:33;;;;;;;3.90;3.00;;;17.40;99.90;;;;;;5041340;28;20474;-84
2021/08/08 01:49:02;;;;;;;3.90;3.50;;;17.40;99.90;;;;;;5040163;28;20450;-84
2021/08/08 01:51:30;;;;;;;3.43;3.10;;;17.40;99.90;;;;;;5039897;28;20521;-84
2021/08/08 01:53:57;;;;;;;3.60;3.30;;;17.40;99.90;;;;;;5046926;28;20491;-83
2021/08/08 01:56:23;;;;;;;3.50;3.20;;;17.40;99.90;;;;;;5045477;28;20861;-84
2021/08/08 01:58:51;;;;;;;7.40;4.17;;;17.40;99.90;;;;;;5041889;28;20878;-84
2021/08/08 02:01:18;;;;;;;5.93;4.07;;;17.50;99.90;;;;;;5048959;28;20920;-83
2021/08/08 02:03:45;;;;;;;4.07;3.77;;;17.20;99.90;;;;;;5043774;28;20463;-85
2021/08/08 02:06:11;;;;;;;4.30;3.70;;;17.40;99.90;;;;;;5044467;28;20522;-84
2021/08/08 02:08:39;;;;;;;4.77;4.27;;;17.40;99.90;;;;;;5053010;28;20485;-84
2021/08/08 02:11:06;;;;;;;4.83;3.30;;;17.40;99.90;;;;;;5053287;28;20455;-84
2021/08/08 02:13:32;;;;;;;4.60;3.10;;;17.60;99.90;;;;;;5053044;28;20578;-84
2021/08/08 02:16:01;;;;;;;3.50;3.23;;;17.30;99.90;;;;;;5044178;28;20478;-84
2021/08/08 02:18:32;;;;;;;3.93;3.50;;;17.10;99.90;;;;;;5052630;28;20439;-84
2021/08/08 02:20:59;;;;;;;5.07;3.13;;;17.50;99.90;;;;;;5050204;28;20443;-84
2021/08/08 02:23:25;;;;;;;3.87;3.57;;;17.00;99.90;;;;;;5044382;28;20482;-84
2021/08/08 02:25:52;;;;;;;4.10;3.70;;;17.40;99.90;;;;;;5050739;28;20474;-85
2021/08/08 02:28:19;;;;;;;5.10;3.63;;;17.40;99.90;;;;;;5049964;28;20489;-84
2021/08/08 02:30:46;;;;;;;3.30;2.97;;;17.30;99.90;;;;;;5056042;28;20449;-84
2021/08/08 02:33:14;;;;;;;3.40;3.10;;;17.30;99.90;;;;;;5052706;28;20479;-84
2021/08/08 02:35:41;;;;;;;3.10;2.90;;;17.30;99.90;;;;;;5045135;28;20956;-84
2021/08/08 02:38:07;;;;;;;4.47;4.17;;;17.30;99.90;;;;;;5044650;28;20448;-84
2021/08/08 02:40:34;;;;;;;3.47;3.17;;;17.40;99.90;;;;;;5040626;28;20447;-84
2021/08/08 02:43:01;;;;;;;2.90;2.70;;;17.30;99.90;;;;;;5039737;28;20870;-84
2021/08/08 02:45:29;;;;;;;4.13;3.70;;;17.30;99.90;;;;;;5038846;28;20464;-84
2021/08/08 02:47:56;;;;;;;3.33;3.13;;;17.30;99.90;;;;;;5038673;28;20453;-85
2021/08/08 02:50:25;;;;;;;4.10;3.70;;;17.40;99.90;;;;;;5038836;28;20459;-84
2021/08/08 02:52:53;;;;;;;4.53;3.57;;;17.40;99.90;;;;;;5039306;28;20959;-84
2021/08/08 02:55:21;;;;;;;4.23;3.50;;;17.60;99.90;;;;;;5039381;28;20518;-85
2021/08/08 02:57:48;;;;;;;4.13;3.23;;;17.30;99.90;;;;;;5039204;28;20537;-84
2021/08/08 03:00:16;;;;;;;5.47;3.27;;;17.60;99.90;;;;;;5038413;28;20455;-84
2021/08/08 03:02:43;;;;;;;3.30;3.00;;;17.50;99.90;;;;;;5038004;28;20462;-85
2021/08/08 03:05:12;;;;;;;10.23;4.27;;;17.70;99.90;;;;;;5038185;28;20467;-84
2021/08/08 03:07:42;;;;;;;4.00;3.13;;;17.40;99.90;;;;;;5038592;28;20467;-84
2021/08/08 03:10:11;;;;;;;3.60;3.30;;;17.40;99.90;;;;;;5038252;28;20497;-84
2021/08/08 03:12:41;;;;;;;3.80;3.47;;;17.50;99.90;;;;;;5038534;28;20455;-84
2021/08/08 03:15:12;;;;;;;6.67;4.77;;;17.20;99.90;;;;;;5037869;28;20556;-84
2021/08/08 03:17:39;;;;;;;3.90;3.60;;;17.40;99.90;;;;;;5039047;28;20447;-84
2021/08/08 03:20:07;;;;;;;9.03;4.03;;;17.30;99.90;;;;;;5039262;28;20514;-84
2021/08/08 03:22:34;;;;;;;3.90;3.60;;;17.40;99.90;;;;;;5038319;28;20451;-84
2021/08/08 03:25:03;;;;;;;4.07;3.80;;;17.70;99.90;;;;;;5038525;28;20490;-84
2021/08/08 03:27:31;;;;;;;3.90;3.60;;;17.50;99.90;;;;;;5037780;28;20493;-84
2021/08/08 03:29:59;;;;;;;3.33;3.13;;;17.50;99.90;;;;;;5037967;28;20459;-84
2021/08/08 03:32:26;;;;;;;3.80;3.43;;;17.70;99.90;;;;;;5037942;28;20466;-84
2021/08/08 03:34:53;;;;;;;3.30;3.10;;;17.50;99.90;;;;;;5037377;28;20550;-84
2021/08/08 03:37:20;;;;;;;3.37;3.07;;;17.50;99.90;;;;;;5037691;28;20819;-85
2021/08/08 03:39:48;;;;;;;3.67;3.37;;;17.70;99.90;;;;;;5037083;28;20432;-84
2021/08/08 03:42:17;;;;;;;4.87;3.30;;;17.50;99.90;;;;;;5037238;28;20581;-84
2021/08/08 03:44:44;;;;;;;4.30;4.00;;;17.50;99.90;;;;;;5037249;28;20471;-83
2021/08/08 03:47:13;;;;;;;7.80;3.17;;;17.50;99.90;;;;;;5037893;28;20480;-84
2021/08/08 03:49:40;;;;;;;3.43;2.67;;;17.50;99.90;;;;;;5037807;28;20489;-83
2021/08/08 03:52:11;;;;;;;5.47;3.57;;;17.50;99.90;;;;;;5038237;28;20509;-84
2021/08/08 03:54:37;;;;;;;3.67;3.37;;;17.30;99.90;;;;;;5037089;28;20829;-84
2021/08/08 03:57:04;;;;;;;3.40;3.20;;;17.80;99.90;;;;;;5038003;28;20447;-84
2021/08/08 03:59:32;;;;;;;4.10;2.60;;;17.50;99.90;;;;;;5038627;28;20451;-84
2021/08/08 04:01:59;;;;;;;3.77;3.47;;;17.50;99.90;;;;;;5038118;28;20490;-85
2021/08/08 04:04:26;;;;;;;3.93;3.30;;;17.50;99.90;;;;;;5037814;28;20494;-84
2021/08/08 04:06:52;;;;;;;4.73;2.47;;;17.50;99.90;;;;;;5036923;28;20450;-84
2021/08/08 04:09:19;;;;;;;4.47;3.00;;;17.50;99.90;;;;;;5038757;28;20482;-84
2021/08/08 04:11:45;;;;;;;3.47;3.17;;;17.40;99.90;;;;;;5037936;28;20447;-84
2021/08/08 04:14:12;;;;;;;3.70;3.13;;;17.50;99.90;;;;;;5037250;28;21007;-84
2021/08/08 04:16:40;;;;;;;4.30;2.67;;;17.50;99.90;;;;;;5039680;28;20517;-84
2021/08/08 04:19:07;;;;;;;3.80;3.50;;;17.50;99.90;;;;;;5037034;28;20878;-85
2021/08/08 04:21:33;;;;;;;7.20;3.87;;;17.40;99.90;;;;;;5036983;28;20451;-84
2021/08/08 04:24:00;;;;;;;3.20;2.93;;;17.40;99.90;;;;;;5059218;23;20494;-81
2021/08/08 04:26:26;;;;;;;3.67;2.80;;;17.40;99.90;;;;;;5037119;28;20456;-81
2021/08/08 04:28:53;;;;;;;3.60;2.77;;;17.40;99.90;;;;;;5037831;28;20566;-81
2021/08/08 04:31:20;;;;;;;3.70;3.40;;;17.40;99.90;;;;;;5036103;28;20431;-81
2021/08/08 04:33:47;;;;;;;4.23;3.00;;;17.40;99.90;;;;;;5033648;28;20920;-81
2021/08/08 04:36:14;;;;;;;4.50;3.20;;;17.40;99.90;;;;;;5017477;28;20444;-81
2021/08/08 04:38:41;;;;;;;3.37;2.97;;;17.30;99.90;;;;;;5020243;28;20455;-81
2021/08/08 04:41:07;;;;;;;3.30;3.10;;;17.30;99.90;;;;;;5024256;28;20432;-81
2021/08/08 04:43:34;;;;;;;2.97;2.77;;;17.40;99.90;;;;;;5016314;28;20448;-81
2021/08/08 04:46:00;;;;;;;5.10;3.37;;;17.50;99.90;;;;;;5017260;28;20444;-81
2021/08/08 04:48:27;;;;;;;4.10;3.80;;;17.50;99.90;;;;;;5017382;28;20494;-81
2021/08/08 04:50:55;;;;;;;5.07;2.90;;;17.50;99.90;;;;;;5017583;28;20444;-81
2021/08/08 04:53:21;;;;;;;4.27;2.97;;;17.50;99.90;;;;;;5017600;28;20506;-82
2021/08/08 04:55:48;;;;;;;4.53;3.17;;;17.60;99.90;;;;;;5018099;28;20487;-82
2021/08/08 04:58:15;;;;;;;3.70;3.40;;;17.60;99.90;;;;;;5018058;28;20968;-81
2021/08/08 05:00:41;;;;;;;3.07;2.80;;;17.60;99.90;;;;;;5018308;28;20510;-81
2021/08/08 05:03:08;;;;;;;9.13;5.23;;;17.60;99.90;;;;;;5017952;28;20443;-81
2021/08/08 05:05:35;;;;;;;4.83;3.70;;;17.60;99.90;;;;;;5020979;28;20490;-82
2021/08/08 05:08:03;;;;;;;2.70;2.50;;;17.60;99.90;;;;;;5025475;28;20455;-82
2021/08/08 05:10:29;;;;;;;3.30;2.30;;;17.60;99.90;;;;;;5024613;28;20483;-85
2021/08/08 05:12:56;;;;;;;3.87;2.67;;;17.60;99.90;;;;;;5024106;28;20475;-82
2021/08/08 05:15:24;;;;;;;3.53;2.77;;;17.60;99.90;;;;;;5024296;28;20480;-82
2021/08/08 05:17:54;;;;;;;3.00;2.63;;;17.60;99.90;;;;;;5023298;28;20452;-81
2021/08/08 05:20:22;;;;;;;3.43;3.17;;;17.60;99.90;;;;;;5022627;28;20452;-83
2021/08/08 05:22:50;;;;;;;4.10;3.50;;;17.60;99.90;;;;;;5022217;28;20459;-81
2021/08/08 05:44:37;;;;;;;3.20;2.20;;;17.70;99.90;;;;;;4960716;28;20816;-81
2021/08/08 05:50:40;;;;;;;5.20;2.07;;;20.80;99.90;;;;;;4948015;29;20458;-81
2021/08/08 06:12:31;;;;;;;2.73;1.90;;;17.90;99.90;;;;;;4742737;30;20445;-81
2021/08/08 06:18:45;;;;;;;3.00;2.70;;;19.10;99.90;;;;;;4892896;29;20461;-81
2021/08/08 06:24:41;;;;;;;3.97;2.83;;;18.10;99.90;;;;;;4975393;28;20469;-82
2021/08/08 06:30:58;;;;;;;5.13;3.33;;;18.30;99.90;;;;;;4911674;29;20455;-82
2021/08/08 06:33:42;;;;;;;3.10;2.33;;;18.40;99.90;;;;;;4945314;29;20468;-82
2021/08/08 06:46:40;;;;;;;5.53;4.93;;;;;;;;;;4860776;29;20424;-81
2021/08/08 06:49:49;;;;;;;;;;;;;;;;;;;;;
2021/08/08 07:34:15;;;;;;;2.07;1.97;;;19.50;99.90;;;;;;4961718;28;20530;-84
2021/08/08 07:36:44;;;;;;;1.50;1.40;;;;;;;;;;4967638;29;20451;-83
2021/08/08 07:39:14;;;;;;;2.20;2.03;;;;;;;;;;4964060;29;20485;-82
2021/08/08 07:41:44;;;;;;;4.80;1.57;;;;;;;;;;4973577;29;20465;-81
2021/08/08 07:44:11;;;;;;;2.10;1.90;;;;;;;;;;4979672;29;20435;-84
2021/08/08 07:46:38;;;;;;;1.90;1.27;;;;;;;;;;4979473;28;20446;-83
2021/08/08 07:49:06;;;;;;;3.87;2.00;;;;;;;;;;4979923;28;20462;-83
2021/08/08 07:51:34;;;;;;;2.10;1.80;;;19.80;99.90;;;;;;4980206;28;20454;-83
2021/08/08 07:54:00;;;;;;;1.50;1.40;;;19.90;99.90;;;;;;4977358;28;20493;-83
2021/08/08 07:56:27;;;;;;;4.50;1.70;;;19.90;99.90;;;;;;4973490;29;20507;-82
2021/08/08 07:58:54;;;;;;;3.17;1.93;;;19.90;99.90;;;;;;4973536;29;20443;-82
2021/08/08 08:01:21;;;;;;;3.20;1.33;;;20.00;99.90;;;;;;4964705;29;20450;-84
2021/08/08 08:03:48;;;;;;;1.43;1.33;;;19.90;99.90;;;;;;4962699;29;20479;-82
2021/08/08 08:06:14;;;;;;;2.97;1.47;;;20.00;99.90;;;;;;4963172;29;20807;-82
2021/08/08 08:08:43;;;;;;;1.70;1.57;;;20.00;99.90;;;;;;4962554;29;20823;-84
2021/08/08 08:11:10;;;;;;;1.60;1.50;;;20.20;99.90;;;;;;4951117;29;20474;-84
2021/08/08 08:13:38;;;;;;;2.13;1.90;;;20.30;99.90;;;;;;4979387;28;20521;-82
2021/08/08 08:16:05;;;;;;;2.60;1.80;;;20.40;99.90;;;;;;4979386;28;20490;-83
2021/08/08 08:18:32;;;;;;;4.67;2.97;;;20.50;99.90;;;;;;4979165;28;20466;-83
2021/08/08 08:20:59;;;;;;;6.10;3.70;;;20.50;99.90;;;;;;4978311;29;20538;-83
2021/08/08 08:23:29;;;;;;;5.80;4.90;;;20.60;99.90;;;;;;4966210;29;20470;-83
2021/08/08 08:25:57;;;;;;;14.10;11.60;;;20.60;99.90;;;;;;4963470;29;20795;-83
2021/08/08 08:28:36;;;;;;;3.97;3.70;;;20.60;99.90;;;;;;4965116;29;20868;-84
2021/08/08 08:31:03;;;;;;;2.03;1.83;;;20.80;99.90;;;;;;4969359;29;20438;-81
2021/08/08 08:33:32;;;;;;;2.03;1.90;;;20.80;99.90;;;;;;4970598;29;20475;-83
2021/08/08 08:36:06;;;;;;;1.40;1.30;;;20.70;99.90;;;;;;4971564;29;20471;-84
2021/08/08 08:38:33;;;;;;;1.50;1.40;;;20.90;99.90;;;;;;4971698;29;20454;-83
2021/08/08 08:41:04;;;;;;;1.97;1.87;;;20.90;99.90;;;;;;4962652;28;20455;-82
2021/08/08 08:43:31;;;;;;;1.43;1.33;;;20.90;99.90;;;;;;4962441;29;20912;-84
2021/08/08 08:45:59;;;;;;;2.73;1.83;;;21.20;99.90;;;;;;4962687;29;20470;-83
2021/08/08 08:51:13;;;;;;;2.30;1.70;;;21.30;99.90;;;;;;4966125;29;20461;-82
2021/08/08 08:54:09;;;;;;;2.87;2.67;;;21.20;99.90;;;;;;4966934;29;20477;-82
2021/08/08 08:56:39;;;;;;;1.83;1.73;;;21.20;99.90;;;;;;4967377;29;20485;-84
2021/08/08 08:59:21;;;;;;;2.33;1.83;;;21.30;99.90;;;;;;4967964;29;20462;-83
2021/08/08 09:01:52;;;;;;;2.83;1.67;;;;;;;;;;4967062;29;20443;-83
2021/08/08 09:04:22;;;;;;;1.70;1.60;;;;;;;;;;4968961;29;20435;-85
2021/08/08 09:07:21;;;;;;;;;;;;;;;;;;;;;
2021/08/08 09:09:54;;;;;;;1.50;1.40;;;21.60;99.90;;;;;;4971408;29;20486;-83
2021/08/08 09:12:32;;;;;;;1.30;1.20;;;21.20;99.90;;;;;;4969089;29;20477;-82
2021/08/08 09:15:10;;;;;;;1.50;1.40;;;21.00;99.90;;;;;;4965723;29;20509;-82
2021/08/08 09:17:42;;;;;;;6.07;2.50;;;21.00;99.90;;;;;;4967329;29;20530;-82
2021/08/08 09:20:11;;;;;;;1.40;1.30;;;21.00;99.90;;;;;;4966247;29;20553;-82
2021/08/08 09:22:41;;;;;;;2.93;1.90;;;21.00;99.90;;;;;;4963443;29;20478;-83
2021/08/08 09:25:19;;;;;;;1.93;1.83;;;21.00;99.90;;;;;;4964464;29;20434;-83
2021/08/08 09:27:47;;;;;;;1.70;1.60;;;21.10;99.90;;;;;;4961926;29;20435;-83
2021/08/08 09:30:18;;;;;;;2.10;1.93;;;21.10;99.90;;;;;;4961679;29;20466;-83
2021/08/08 09:32:46;;;;;;;1.80;1.70;;;21.10;99.90;;;;;;4963409;29;20474;-83
2021/08/08 09:35:19;;;;;;;2.10;1.43;;;21.10;99.90;;;;;;4961922;29;20463;-83
2021/08/08 09:37:57;;;;;;;2.60;2.40;;;21.10;99.90;;;;;;4966673;29;20443;-82
2021/08/08 09:40:24;;;;;;;2.13;1.70;;;21.10;99.90;;;;;;4972419;29;20441;-82
2021/08/08 09:42:53;;;;;;;2.20;1.70;;;21.50;99.90;;;;;;4971181;29;20537;-82
2021/08/08 09:45:20;;;;;;;1.70;1.60;;;21.50;99.90;;;;;;4964959;29;20541;-83
2021/08/08 09:47:49;;;;;;;1.77;1.63;;;21.50;99.90;;;;;;4966245;29;20458;-82
2021/08/08 09:50:18;;;;;;;4.57;2.27;;;21.10;99.90;;;;;;4963243;29;20454;-81
2021/08/08 09:52:51;;;;;;;1.87;1.60;;;21.20;99.90;;;;;;4964686;28;20494;-83
2021/08/08 09:55:22;;;;;;;2.30;1.80;;;21.20;99.90;;;;;;4965226;29;20474;-83
2021/08/08 09:57:49;;;;;;;2.60;2.40;;;21.40;99.90;;;;;;4966844;29;20443;-83
2021/08/08 10:00:29;;;;;;;2.33;2.17;;;21.50;99.90;;;;;;4965616;29;20461;-82
2021/08/08 10:02:56;;;;;;;1.73;1.50;;;21.10;99.90;;;;;;4968344;29;20475;-82
2021/08/08 10:05:25;;;;;;;3.63;1.70;;;21.10;99.90;;;;;;4971999;28;20430;-84
2021/08/08 10:07:53;;;;;;;1.43;1.33;;;21.20;99.90;;;;;;4982394;28;20442;-83
2021/08/08 10:10:21;;;;;;;2.10;2.00;;;21.40;99.90;;;;;;4977801;28;20489;-83
2021/08/08 10:13:06;;;;;;;2.10;1.50;;;21.40;99.90;;;;;;4970379;29;20486;-84
2021/08/08 10:15:37;;;;;;;1.50;1.40;;;21.70;99.90;;;;;;4974572;29;20502;-84
2021/08/08 10:18:05;;;;;;;2.33;2.13;;;21.60;99.90;;;;;;4979726;29;20388;-84
2021/08/08 10:20:32;;;;;;;1.70;1.60;;;21.80;99.90;;;;;;4980679;29;20451;-84
2021/08/08 10:23:02;;;;;;;1.57;1.47;;;21.60;99.90;;;;;;4979915;29;20470;-83
2021/08/08 10:25:29;;;;;;;1.77;1.67;;;21.70;99.90;;;;;;4979414;29;20450;-82
2021/08/08 10:27:57;;;;;;;1.93;1.60;;;21.80;99.90;;;;;;4978283;29;20451;-82
2021/08/08 10:30:24;;;;;;;2.70;1.60;;;21.80;99.90;;;;;;4975557;29;20900;-83
2021/08/08 10:32:52;;;;;;;2.13;1.93;;;22.10;99.90;;;;;;4970869;29;20568;-83
2021/08/08 10:35:19;;;;;;;3.97;1.63;;;22.10;99.90;;;;;;4968097;29;20904;-83
2021/08/08 10:37:47;;;;;;;4.33;1.33;;;22.20;99.90;;;;;;4966706;29;20458;-82
2021/08/08 10:40:26;;;;;;;1.93;1.40;;;22.20;99.90;;;;;;4966815;29;20455;-84
2021/08/08 10:42:53;;;;;;;3.53;1.83;;;22.20;99.90;;;;;;4964949;29;20991;-84
2021/08/08 10:45:24;;;;;;;1.90;1.60;;;22.60;99.90;;;;;;4964973;29;20435;-83
2021/08/08 10:47:57;;;;;;;1.23;1.13;;;22.20;99.90;;;;;;4968637;29;20841;-82
2021/08/08 10:50:40;;;;;;;1.63;1.53;;;22.20;99.90;;;;;;4972306;29;20479;-83
2021/08/08 10:53:07;;;;;;;3.30;2.00;;;22.50;99.90;;;;;;4970593;29;20470;-83
2021/08/08 10:55:35;;;;;;;2.27;1.80;;;22.10;99.90;;;;;;4970899;29;20833;-83
2021/08/08 10:58:13;;;;;;;3.03;2.00;;;22.30;99.90;;;;;;4966957;29;20458;-84
2021/08/08 11:00:40;;;;;;;1.77;1.67;;;22.30;99.90;;;;;;4964424;29;20458;-83
2021/08/08 11:03:13;;;;;;;3.67;3.37;;;22.40;99.90;;;;;;4963403;28;20506;-84
2021/08/08 11:05:39;;;;;;;2.43;2.23;;;21.90;99.90;;;;;;4963868;29;20517;-83
2021/08/08 11:08:08;;;;;;;3.20;2.07;;;22.40;99.90;;;;;;4962890;29;20487;-84
2021/08/08 11:10:38;;;;;;;3.20;2.43;;;22.40;99.90;;;;;;4964181;29;20521;-84
2021/08/08 11:13:15;;;;;;;4.43;2.70;;;21.90;99.90;;;;;;4964774;29;20502;-84
2021/08/08 11:15:43;;;;;;;2.90;1.70;;;22.10;99.90;;;;;;4965209;29;20565;-84
2021/08/08 11:18:13;;;;;;;2.60;2.10;;;22.20;99.90;;;;;;4963732;29;20612;-84
2021/08/08 11:20:42;;;;;;;3.60;1.97;;;21.70;99.90;;;;;;4964137;29;20506;-85
2021/08/08 11:23:08;;;;;;;4.30;2.80;;;21.70;99.90;;;;;;4961579;29;20975;-83
2021/08/08 11:25:38;;;;;;;1.40;1.30;;;21.80;99.90;;;;;;4962723;29;20567;-83
2021/08/08 11:28:06;;;;;;;2.03;1.77;;;22.00;99.90;;;;;;4962545;29;20546;-85
2021/08/08 11:30:39;;;;;;;2.20;2.10;;;21.80;99.90;;;;;;4962270;29;20454;-83
2021/08/08 11:33:06;;;;;;;2.90;2.10;;;22.50;99.90;;;;;;4962200;29;20486;-83
2021/08/08 11:35:34;;;;;;;4.60;2.10;;;22.40;99.90;;;;;;4962373;29;20616;-83
2021/08/08 11:38:01;;;;;;;2.93;2.07;;;21.70;99.90;;;;;;4963769;29;20562;-83
2021/08/08 11:40:33;;;;;;;2.10;1.90;;;21.60;99.90;;;;;;4967309;29;20458;-83
2021/08/08 11:43:01;;;;;;;3.80;2.07;;;22.80;99.90;;;;;;4968338;29;20482;-83
2021/08/08 11:45:39;;;;;;;1.80;1.40;;;22.50;99.90;;;;;;4962108;29;20478;-83
2021/08/08 11:48:08;;;;;;;2.20;1.63;;;22.50;99.90;;;;;;4962822;29;20443;-83
2021/08/08 11:50:37;;;;;;;2.30;2.00;;;22.40;99.90;;;;;;4962168;29;20450;-84
2021/08/08 11:53:06;;;;;;;2.57;1.67;;;22.30;99.90;;;;;;4960961;29;21066;-84
2021/08/08 11:55:34;;;;;;;4.07;1.70;;;22.50;99.90;;;;;;4962423;29;20457;-84
2021/08/08 11:58:16;;;;;;;3.70;1.80;;;22.60;99.90;;;;;;4961851;29;21030;-84
2021/08/08 12:00:43;;;;;;;2.87;1.67;;;22.70;99.90;;;;;;4963790;29;20439;-84
2021/08/08 12:03:10;;;;;;;2.80;2.00;;;23.10;99.90;;;;;;4967853;29;21003;-83
2021/08/08 12:05:41;;;;;;;2.83;1.63;;;23.10;99.90;;;;;;4963718;29;20526;-84
2021/08/08 12:08:09;;;;;;;2.17;1.90;;;23.20;99.90;;;;;;4964871;29;20441;-83
2021/08/08 12:10:37;;;;;;;1.57;1.47;;;23.40;99.90;;;;;;4963131;29;20458;-83
2021/08/08 12:13:18;;;;;;;2.17;1.97;;;23.50;99.90;;;;;;4960666;29;20502;-82
2021/08/08 12:15:46;;;;;;;1.90;1.80;;;24.30;99.90;;;;;;4961077;28;20434;-85
2021/08/08 12:18:14;;;;;;;2.13;1.93;;;23.50;99.90;;;;;;4962136;29;20542;-84
2021/08/08 12:20:45;;;;;;;2.33;1.30;;;23.50;99.90;;;;;;4963788;29;20637;-84
2021/08/08 12:23:13;;;;;;;1.30;1.20;;;22.70;99.90;;;;;;4962632;29;20489;-84
2021/08/08 12:25:44;;;;;;;2.60;2.00;;;22.90;99.90;;;;;;4962454;29;20465;-85
2021/08/08 12:28:14;;;;;;;3.37;2.07;;;23.40;99.90;;;;;;4961504;29;20462;-84
2021/08/08 12:30:41;;;;;;;1.90;1.73;;;23.50;99.90;;;;;;4962334;29;20459;-84
2021/08/08 12:33:12;;;;;;;2.00;1.70;;;23.60;99.90;;;;;;4965926;29;20482;-82
2021/08/08 12:35:40;;;;;;;3.90;1.30;;;24.00;99.90;;;;;;4976253;29;20435;-82
2021/08/08 12:38:13;;;;;;;2.50;1.20;;;23.50;99.90;;;;;;4970817;29;20458;-84
2021/08/08 12:40:48;;;;;;;2.33;1.57;;;22.90;99.90;;;;;;4972346;29;20466;-83
2021/08/08 12:43:22;;;;;;;3.50;2.20;;;23.10;99.90;;;;;;4976020;29;20509;-84
2021/08/08 12:45:50;;;;;;;2.17;1.40;;;23.20;99.90;;;;;;4971188;29;20443;-84
2021/08/08 12:48:28;;;;;;;1.67;1.20;;;23.30;99.90;;;;;;4964065;29;20451;-84
2021/08/08 12:50:55;;;;;;;1.70;1.60;;;23.40;99.90;;;;;;4961932;29;20438;-84
2021/08/08 12:53:23;;;;;;;1.93;1.30;;;23.50;99.90;;;;;;4962159;29;21041;-84
2021/08/08 12:55:52;;;;;;;2.93;1.70;;;23.50;99.90;;;;;;4962339;29;20446;-82
2021/08/08 12:58:19;;;;;;;1.40;1.27;;;23.30;99.90;;;;;;4961441;29;20459;-82
2021/08/08 13:00:45;;;;;;;1.40;1.30;;;23.20;99.90;;;;;;4961189;29;20535;-83
2021/08/08 13:03:12;;;;;;;5.83;2.00;;;23.30;99.90;;;;;;4962267;29;20471;-83
2021/08/08 13:05:40;;;;;;;4.07;2.10;;;22.60;99.90;;;;;;4962342;29;20458;-83
2021/08/08 13:08:08;;;;;;;1.87;1.67;;;23.20;99.90;;;;;;4962505;29;20462;-84
2021/08/08 13:10:36;;;;;;;2.03;1.83;;;22.90;99.90;;;;;;4963413;29;20455;-83
2021/08/08 13:13:03;;;;;;;2.53;1.87;;;22.90;99.90;;;;;;4973887;28;20458;-84
2021/08/08 13:15:30;;;;;;;3.10;2.80;;;22.80;99.90;;;;;;4979120;28;20438;-83
2021/08/08 13:17:56;;;;;;;4.70;3.00;;;23.30;99.90;;;;;;4969537;29;20478;-83
2021/08/08 13:20:26;;;;;;;2.17;1.40;;;22.70;99.90;;;;;;4966217;29;20462;-83
2021/08/08 13:22:52;;;;;;;1.50;1.40;;;23.00;99.90;;;;;;4966270;29;20496;-83
2021/08/08 13:25:19;;;;;;;4.50;2.03;;;23.00;99.90;;;;;;4965964;29;20450;-86
2021/08/08 13:27:47;;;;;;;3.13;2.00;;;22.90;99.90;;;;;;4968918;28;20873;-83
2021/08/08 13:30:14;;;;;;;3.17;2.80;;;22.80;99.90;;;;;;4971165;29;20475;-83
2021/08/08 13:33:23;;;;;;;4.23;2.20;;;22.50;99.90;;;;;;5002657;23;20497;-84
2021/08/08 13:36:09;;;;;;;5.70;1.83;;;22.80;99.90;;;;;;4987967;28;20431;-85
2021/08/08 13:39:15;;;;;;;1.90;1.63;;;23.00;99.90;;;;;;4991286;28;20512;-84
2021/08/08 13:44:55;;;;;;;2.90;1.90;;;23.30;99.90;;;;;;4962224;28;20541;-84
2021/08/08 13:58:01;;;;;;;;;;;;;;;;;;;;;
2021/08/08 14:01:04;;;;;;;2.70;2.47;;;23.00;99.90;;;;;;4962512;29;20430;-84
2021/08/08 14:03:51;;;;;;;1.80;1.70;;;23.10;99.90;;;;;;4963015;28;20990;-84
2021/08/08 14:06:33;;;;;;;6.63;1.60;;;23.30;99.90;;;;;;4931884;28;20454;-85
2021/08/08 14:22:39;;;;;;;2.37;2.17;;;23.00;99.90;;;;;;4937874;29;20481;-84
2021/08/08 14:35:11;;;;;;;;;;;;;;;;;;;;;
2021/08/08 14:38:16;;;;;;;8.07;3.10;;;23.00;99.90;;;;;;4933208;28;20588;-85
2021/08/08 14:43:52;;;;;;;7.67;3.90;;;;;;;;;;4978010;28;20466;-84
2021/08/08 14:46:19;;;;;;;2.20;2.00;;;22.70;99.90;;;;;;5009012;23;20504;-83
2021/08/08 14:48:45;;;;;;;4.60;2.47;;;23.00;99.90;;;;;;4983553;28;20449;-85
2021/08/08 14:51:14;;;;;;;2.73;2.50;;;22.50;99.90;;;;;;4984802;28;20453;-83
2021/08/08 14:53:44;;;;;;;3.07;2.30;;;23.30;99.90;;;;;;4985981;28;20549;-85
2021/08/08 14:56:23;;;;;;;;;;;;;;;;;;;;;
2021/08/08 14:58:51;;;;;;;2.77;2.30;;;;;;;;;;4985632;28;20452;-85
2021/08/08 15:01:20;;;;;;;2.90;2.50;;;22.50;99.90;;;;;;4985014;28;20457;-84
2021/08/08 15:03:46;;;;;;;2.43;2.27;;;22.40;99.90;;;;;;4994446;28;20450;-83
2021/08/08 15:06:15;;;;;;;3.40;1.87;;;22.30;99.90;;;;;;4997670;28;20450;-83
2021/08/08 15:08:42;;;;;;;3.13;1.80;;;22.30;99.90;;;;;;4998038;28;20438;-84
2021/08/08 15:11:09;;;;;;;3.73;2.17;;;21.40;99.90;;;;;;4997714;28;20449;-84
2021/08/08 15:13:35;;;;;;;3.87;3.47;;;22.30;99.90;;;;;;4999861;28;20470;-83
2021/08/08 15:16:03;;;;;;;2.87;2.67;;;22.30;99.90;;;;;;4998823;28;20461;-83
2021/08/08 15:18:30;;;;;;;2.70;2.03;;;22.40;99.90;;;;;;4997994;28;20493;-83
2021/08/08 15:20:58;;;;;;;2.60;1.70;;;22.30;99.90;;;;;;4997899;28;20450;-82
2021/08/08 15:23:28;;;;;;;3.50;2.30;;;22.30;99.90;;;;;;4993149;28;20485;-82
2021/08/08 15:25:57;;;;;;;2.67;2.47;;;22.10;99.90;;;;;;4987173;28;20453;-83
2021/08/08 15:28:24;;;;;;;3.07;2.73;;;22.30;99.90;;;;;;4984153;28;20441;-82
2021/08/08 15:30:51;;;;;;;2.40;1.80;;;22.30;99.90;;;;;;4983995;28;20462;-83
2021/08/08 15:33:17;;;;;;;8.10;2.70;;;22.30;99.90;;;;;;4983589;28;20454;-83
2021/08/08 15:35:44;;;;;;;3.70;3.13;;;22.30;99.90;;;;;;4982398;28;20454;-82